sensor_id;sensor_type;location;lat;lon;timestamp;pressure;altitude;pressure_sealevel;temperature;humidity
59103;BME280;43999;51.660;5.616;2022-08-24T00:02:01;101514.22;;;21.32;100.00
59103;BME280;43999;51.660;5.616;2022-08-24T00:04:29;101515.19;;;21.31;100.00
59103;BME280;43999;51.660;5.616;2022-08-24T00:07:00;101504.94;;;21.26;100.00
59103;BME280;43999;51.660;5.616;2022-08-24T00:09:30;101510.69;;;21.22;100.00
59103;BME280;43999;51.660;5.616;2022-08-24T00:11:58;101518.94;;;21.19;100.00
59103;BME280;43999;51.660;5.616;2022-08-24T00:14:26;101512.06;;;21.16;100.00
59103;BME280;43999;51.660;5.616;2022-08-24T00:16:54;101516.69;;;21.14;100.00
59103;BME280;43999;51.660;5.616;2022-08-24T00:19:22;101522.28;;;21.11;100.00
59103;BME280;43999;51.660;5.616;2022-08-24T00:21:49;101523.25;;;21.10;100.00
59103;BME280;43999;51.660;5.616;2022-08-24T00:24:19;101527.88;;;21.08;100.00
59103;BME280;43999;51.660;5.616;2022-08-24T00:26:46;101519.19;;;21.06;100.00
59103;BME280;43999;51.660;5.616;2022-08-24T00:29:17;101528.16;;;21.05;100.00
59103;BME280;43999;51.660;5.616;2022-08-24T00:31:45;101525.63;;;21.03;100.00
59103;BME280;43999;51.660;5.616;2022-08-24T00:34:14;101526.63;;;21.02;100.00
59103;BME280;43999;51.660;5.616;2022-08-24T00:36:44;101530.38;;;21.00;100.00
59103;BME280;43999;51.660;5.616;2022-08-24T00:39:12;101532.34;;;20.98;100.00
59103;BME280;43999;51.660;5.616;2022-08-24T00:41:44;101529.09;;;20.94;100.00
59103;BME280;43999;51.660;5.616;2022-08-24T00:44:15;101525.72;;;20.92;100.00
59103;BME280;43999;51.660;5.616;2022-08-24T00:46:50;101528.66;;;20.89;100.00
59103;BME280;43999;51.660;5.616;2022-08-24T00:49:40;101525.56;;;20.84;100.00
59103;BME280;43999;51.660;5.616;2022-08-24T00:52:24;101533.94;;;20.79;100.00
59103;BME280;43999;51.660;5.616;2022-08-24T00:55:30;101536.00;;;20.75;100.00
59103;BME280;43999;51.660;5.616;2022-08-24T00:58:06;101529.28;;;20.71;100.00
59103;BME280;43999;51.660;5.616;2022-08-24T01:00:50;101532.91;;;20.70;100.00
59103;BME280;43999;51.660;5.616;2022-08-24T01:03:23;101541.28;;;20.66;100.00
59103;BME280;43999;51.660;5.616;2022-08-24T01:05:53;101541.53;;;20.63;100.00
59103;BME280;43999;51.660;5.616;2022-08-24T01:08:23;101539.13;;;20.59;100.00
59103;BME280;43999;51.660;5.616;2022-08-24T01:11:02;101537.69;;;20.55;100.00
59103;BME280;43999;51.660;5.616;2022-08-24T01:13:42;101530.97;;;20.51;100.00
59103;BME280;43999;51.660;5.616;2022-08-24T01:16:13;101538.34;;;20.48;100.00
59103;BME280;43999;51.660;5.616;2022-08-24T01:19:10;101531.34;;;20.47;100.00
59103;BME280;43999;51.660;5.616;2022-08-24T01:25:00;101538.72;;;20.43;100.00
59103;BME280;43999;51.660;5.616;2022-08-24T01:27:29;101537.19;;;20.40;100.00
59103;BME280;43999;51.660;5.616;2022-08-24T01:29:59;101532.13;;;20.37;100.00
59103;BME280;43999;51.660;5.616;2022-08-24T01:32:30;101540.38;;;20.34;100.00
59103;BME280;43999;51.660;5.616;2022-08-24T01:34:57;101539.50;;;20.34;100.00
59103;BME280;43999;51.660;5.616;2022-08-24T01:37:25;101536.16;;;20.32;100.00
59103;BME280;43999;51.660;5.616;2022-08-24T01:39:55;101533.63;;;20.30;100.00
59103;BME280;43999;51.660;5.616;2022-08-24T01:42:26;101528.56;;;20.27;100.00
59103;BME280;43999;51.660;5.616;2022-08-24T01:44:56;101527.84;;;20.25;100.00
59103;BME280;43999;51.660;5.616;2022-08-24T01:47:23;101527.97;;;20.23;100.00
59103;BME280;43999;51.660;5.616;2022-08-24T01:49:50;101514.19;;;20.18;100.00
59103;BME280;43999;51.660;5.616;2022-08-24T01:52:24;101520.63;;;20.16;100.00
59103;BME280;43999;51.660;5.616;2022-08-24T01:55:13;101515.56;;;20.13;100.00
59103;BME280;43999;51.660;5.616;2022-08-24T01:57:48;101529.97;;;20.10;100.00
59103;BME280;43999;51.660;5.616;2022-08-24T02:00:16;101528.25;;;20.09;100.00
59103;BME280;43999;51.660;5.616;2022-08-24T02:02:44;101522.22;;;20.07;100.00
59103;BME280;43999;51.660;5.616;2022-08-24T02:05:14;101523.31;;;20.04;100.00
59103;BME280;43999;51.660;5.616;2022-08-24T02:07:44;101523.44;;;20.03;100.00
59103;BME280;43999;51.660;5.616;2022-08-24T02:10:13;101519.13;;;20.02;100.00
59103;BME280;43999;51.660;5.616;2022-08-24T02:12:45;101527.94;;;20.02;100.00
59103;BME280;43999;51.660;5.616;2022-08-24T02:15:34;101530.59;;;20.02;100.00
59103;BME280;43999;51.660;5.616;2022-08-24T02:18:09;101528.91;;;20.01;100.00
59103;BME280;43999;51.660;5.616;2022-08-24T02:20:42;101526.38;;;20.00;100.00
59103;BME280;43999;51.660;5.616;2022-08-24T02:23:11;101530.03;;;19.99;100.00
59103;BME280;43999;51.660;5.616;2022-08-24T02:25:38;101527.63;;;19.96;100.00
59103;BME280;43999;51.660;5.616;2022-08-24T02:28:05;101540.19;;;19.94;100.00
59103;BME280;43999;51.660;5.616;2022-08-24T02:30:34;101542.97;;;19.92;100.00
59103;BME280;43999;51.660;5.616;2022-08-24T02:33:01;101543.94;;;19.91;100.00
59103;BME280;43999;51.660;5.616;2022-08-24T02:35:29;101535.25;;;19.89;100.00
59103;BME280;43999;51.660;5.616;2022-08-24T02:37:57;101540.69;;;19.87;100.00
59103;BME280;43999;51.660;5.616;2022-08-24T02:40:26;101542.38;;;19.88;100.00
59103;BME280;43999;51.660;5.616;2022-08-24T02:42:55;101536.22;;;19.88;100.00
59103;BME280;43999;51.660;5.616;2022-08-24T02:45:22;101550.34;;;19.88;100.00
59103;BME280;43999;51.660;5.616;2022-08-24T02:47:50;101548.53;;;19.89;100.00
59103;BME280;43999;51.660;5.616;2022-08-24T02:50:19;101550.34;;;19.88;100.00
59103;BME280;43999;51.660;5.616;2022-08-24T02:52:47;101554.84;;;19.88;100.00
59103;BME280;43999;51.660;5.616;2022-08-24T02:55:17;101545.16;;;19.87;100.00
59103;BME280;43999;51.660;5.616;2022-08-24T02:57:48;101544.47;;;19.85;100.00
59103;BME280;43999;51.660;5.616;2022-08-24T03:00:19;101549.78;;;19.85;100.00
59103;BME280;43999;51.660;5.616;2022-08-24T03:02:52;101541.94;;;19.83;100.00
59103;BME280;43999;51.660;5.616;2022-08-24T03:05:22;101537.56;;;19.82;100.00
59103;BME280;43999;51.660;5.616;2022-08-24T03:07:50;101545.66;;;19.81;100.00
59103;BME280;43999;51.660;5.616;2022-08-24T03:10:21;101544.22;;;19.77;100.00
59103;BME280;43999;51.660;5.616;2022-08-24T03:12:50;101543.34;;;19.76;100.00
59103;BME280;43999;51.660;5.616;2022-08-24T03:15:20;101540.81;;;19.75;100.00
59103;BME280;43999;51.660;5.616;2022-08-24T03:17:49;101542.78;;;19.73;100.00
59103;BME280;43999;51.660;5.616;2022-08-24T03:20:20;101543.84;;;19.70;100.00
59103;BME280;43999;51.660;5.616;2022-08-24T03:22:49;101536.13;;;19.67;100.00
59103;BME280;43999;51.660;5.616;2022-08-24T03:25:19;101531.94;;;19.64;100.00
59103;BME280;43999;51.660;5.616;2022-08-24T03:27:51;101531.31;;;19.61;100.00
59103;BME280;43999;51.660;5.616;2022-08-24T03:30:20;101537.88;;;19.57;100.00
59103;BME280;43999;51.660;5.616;2022-08-24T03:32:49;101531.81;;;19.55;100.00
59103;BME280;43999;51.660;5.616;2022-08-24T03:35:17;101534.59;;;19.53;100.00
59103;BME280;43999;51.660;5.616;2022-08-24T03:37:49;101540.16;;;19.50;100.00
59103;BME280;43999;51.660;5.616;2022-08-24T03:40:17;101535.94;;;19.47;100.00
59103;BME280;43999;51.660;5.616;2022-08-24T03:42:50;101532.69;;;19.44;100.00
59103;BME280;43999;51.660;5.616;2022-08-24T03:45:18;101532.78;;;19.42;100.00
59103;BME280;43999;51.660;5.616;2022-08-24T03:47:46;101531.25;;;19.40;100.00
59103;BME280;43999;51.660;5.616;2022-08-24T03:50:14;101528.84;;;19.37;100.00
59103;BME280;43999;51.660;5.616;2022-08-24T03:52:42;101536.19;;;19.33;100.00
59103;BME280;43999;51.660;5.616;2022-08-24T03:55:10;101538.13;;;19.31;100.00
59103;BME280;43999;51.660;5.616;2022-08-24T03:57:40;101537.44;;;19.29;100.00
59103;BME280;43999;51.660;5.616;2022-08-24T04:00:10;101534.03;;;19.27;100.00
59103;BME280;43999;51.660;5.616;2022-08-24T04:02:48;101536.81;;;19.25;100.00
59103;BME280;43999;51.660;5.616;2022-08-24T04:05:19;101535.13;;;19.24;100.00
59103;BME280;43999;51.660;5.616;2022-08-24T04:07:46;101538.75;;;19.23;100.00
59103;BME280;43999;51.660;5.616;2022-08-24T04:10:13;101546.72;;;19.23;100.00
59103;BME280;43999;51.660;5.616;2022-08-24T04:12:41;101540.69;;;19.21;100.00
59103;BME280;43999;51.660;5.616;2022-08-24T04:15:09;101545.16;;;19.21;100.00
59103;BME280;43999;51.660;5.616;2022-08-24T04:17:38;101547.91;;;19.19;100.00
59103;BME280;43999;51.660;5.616;2022-08-24T04:20:06;101544.44;;;19.19;100.00
59103;BME280;43999;51.660;5.616;2022-08-24T04:22:37;101544.44;;;19.19;100.00
59103;BME280;43999;51.660;5.616;2022-08-24T04:25:06;101546.25;;;19.18;100.00
59103;BME280;43999;51.660;5.616;2022-08-24T04:27:38;101554.09;;;19.20;100.00
59103;BME280;43999;51.660;5.616;2022-08-24T04:30:08;101555.19;;;19.17;100.00
59103;BME280;43999;51.660;5.616;2022-08-24T04:33:06;101555.28;;;19.15;100.00
59103;BME280;43999;51.660;5.616;2022-08-24T04:35:43;101557.97;;;19.15;100.00
59103;BME280;43999;51.660;5.616;2022-08-24T04:38:16;101559.91;;;19.13;100.00
59103;BME280;43999;51.660;5.616;2022-08-24T04:41:04;101558.31;;;19.11;100.00
59103;BME280;43999;51.660;5.616;2022-08-24T04:43:41;101561.09;;;19.09;100.00
59103;BME280;43999;51.660;5.616;2022-08-24T04:46:15;101570.03;;;19.08;100.00
59103;BME280;43999;51.660;5.616;2022-08-24T04:48:46;101571.00;;;19.07;100.00
59103;BME280;43999;51.660;5.616;2022-08-24T04:51:18;101564.94;;;19.05;100.00
59103;BME280;43999;51.660;5.616;2022-08-24T04:53:47;101574.84;;;19.03;100.00
59103;BME280;43999;51.660;5.616;2022-08-24T04:56:23;101571.38;;;19.03;100.00
59103;BME280;43999;51.660;5.616;2022-08-24T04:58:54;101564.34;;;19.02;100.00
59103;BME280;43999;51.660;5.616;2022-08-24T05:01:26;101564.34;;;19.02;100.00
59103;BME280;43999;51.660;5.616;2022-08-24T05:03:57;101564.34;;;19.02;100.00
59103;BME280;43999;51.660;5.616;2022-08-24T05:06:28;101573.16;;;19.02;100.00
59103;BME280;43999;51.660;5.616;2022-08-24T05:08:58;101567.97;;;19.01;100.00
59103;BME280;43999;51.660;5.616;2022-08-24T05:11:27;101566.06;;;19.03;100.00
59103;BME280;43999;51.660;5.616;2022-08-24T05:13:56;101566.78;;;19.05;100.00
59103;BME280;43999;51.660;5.616;2022-08-24T05:16:25;101572.78;;;19.07;100.00
59103;BME280;43999;51.660;5.616;2022-08-24T05:18:55;101571.59;;;19.11;100.00
59103;BME280;43999;51.660;5.616;2022-08-24T05:21:23;101574.97;;;19.13;100.00
59103;BME280;43999;51.660;5.616;2022-08-24T05:23:54;101575.72;;;19.15;100.00
59103;BME280;43999;51.660;5.616;2022-08-24T05:26:26;101576.44;;;19.17;100.00
59103;BME280;43999;51.660;5.616;2022-08-24T05:29:00;101583.31;;;19.20;100.00
59103;BME280;43999;51.660;5.616;2022-08-24T05:31:43;101584.88;;;19.22;100.00
59103;BME280;43999;51.660;5.616;2022-08-24T05:34:13;101589.00;;;19.26;100.00
59103;BME280;43999;51.660;5.616;2022-08-24T05:36:41;101596.72;;;19.29;100.00
59103;BME280;43999;51.660;5.616;2022-08-24T05:39:18;101591.03;;;19.34;100.00
59103;BME280;43999;51.660;5.616;2022-08-24T05:41:52;101591.50;;;19.39;100.00
59103;BME280;43999;51.660;5.616;2022-08-24T05:44:24;101589.34;;;19.44;100.00
59103;BME280;43999;51.660;5.616;2022-08-24T05:46:58;101589.81;;;19.49;100.00
59103;BME280;43999;51.660;5.616;2022-08-24T05:49:27;101588.63;;;19.53;100.00
59103;BME280;43999;51.660;5.616;2022-08-24T05:51:55;101588.84;;;19.62;100.00
59103;BME280;43999;51.660;5.616;2022-08-24T05:54:22;101588.22;;;19.69;100.00
59103;BME280;43999;51.660;5.616;2022-08-24T05:56:57;101594.75;;;19.77;100.00
59103;BME280;43999;51.660;5.616;2022-08-24T05:59:35;101601.97;;;19.86;100.00
59103;BME280;43999;51.660;5.616;2022-08-24T06:02:09;101598.81;;;19.92;100.00
59103;BME280;43999;51.660;5.616;2022-08-24T06:04:37;101592.88;;;20.00;100.00
59103;BME280;43999;51.660;5.616;2022-08-24T06:07:06;101595.75;;;20.08;100.00
59103;BME280;43999;51.660;5.616;2022-08-24T06:09:41;101599.34;;;20.18;100.00
59103;BME280;43999;51.660;5.616;2022-08-24T06:12:10;101596.03;;;20.26;100.00
59103;BME280;43999;51.660;5.616;2022-08-24T06:14:45;101604.97;;;20.36;100.00
59103;BME280;43999;51.660;5.616;2022-08-24T06:17:17;101605.16;;;20.45;100.00
59103;BME280;43999;51.660;5.616;2022-08-24T06:19:45;101607.78;;;20.56;100.00
59103;BME280;43999;51.660;5.616;2022-08-24T06:22:12;101607.75;;;20.67;100.00
59103;BME280;43999;51.660;5.616;2022-08-24T06:24:40;101607.78;;;20.77;100.00
59103;BME280;43999;51.660;5.616;2022-08-24T06:27:27;101601.94;;;20.83;100.00
59103;BME280;43999;51.660;5.616;2022-08-24T06:30:05;101609.53;;;20.88;100.00
59103;BME280;43999;51.660;5.616;2022-08-24T06:32:40;101612.16;;;20.99;100.00
59103;BME280;43999;51.660;5.616;2022-08-24T06:35:16;101611.06;;;21.11;100.00
59103;BME280;43999;51.660;5.616;2022-08-24T06:37:45;101620.09;;;21.20;100.00
59103;BME280;43999;51.660;5.616;2022-08-24T06:40:12;101622.91;;;21.28;100.00
59103;BME280;43999;51.660;5.616;2022-08-24T06:42:40;101623.25;;;21.35;100.00
59103;BME280;43999;51.660;5.616;2022-08-24T06:45:20;101618.63;;;21.47;100.00
59103;BME280;43999;51.660;5.616;2022-08-24T06:47:49;101624.75;;;21.59;100.00
59103;BME280;43999;51.660;5.616;2022-08-24T06:50:17;101629.97;;;21.70;100.00
59103;BME280;43999;51.660;5.616;2022-08-24T06:52:50;101626.34;;;21.81;100.00
59103;BME280;43999;51.660;5.616;2022-08-24T06:55:17;101620.03;;;21.92;100.00
59103;BME280;43999;51.660;5.616;2022-08-24T06:57:44;101625.56;;;22.00;100.00
59103;BME280;43999;51.660;5.616;2022-08-24T07:00:19;101627.25;;;22.11;100.00
59103;BME280;43999;51.660;5.616;2022-08-24T07:02:47;101629.50;;;22.15;100.00
59103;BME280;43999;51.660;5.616;2022-08-24T07:05:16;101633.44;;;22.21;100.00
59103;BME280;43999;51.660;5.616;2022-08-24T07:08:07;101630.06;;;22.29;100.00
59103;BME280;43999;51.660;5.616;2022-08-24T07:10:35;101631.91;;;22.38;100.00
59103;BME280;43999;51.660;5.616;2022-08-24T07:13:03;101634.72;;;22.46;100.00
59103;BME280;43999;51.660;5.616;2022-08-24T07:15:30;101632.19;;;22.54;100.00
59103;BME280;43999;51.660;5.616;2022-08-24T07:18:13;101638.63;;;22.62;100.00
59103;BME280;43999;51.660;5.616;2022-08-24T07:20:46;101645.13;;;22.69;100.00
59103;BME280;43999;51.660;5.616;2022-08-24T07:23:22;101637.34;;;22.76;100.00
59103;BME280;43999;51.660;5.616;2022-08-24T07:26:13;101640.19;;;22.84;100.00
59103;BME280;43999;51.660;5.616;2022-08-24T07:28:54;101637.75;;;22.90;100.00
59103;BME280;43999;51.660;5.616;2022-08-24T07:31:32;101633.94;;;23.03;99.35
59103;BME280;43999;51.660;5.616;2022-08-24T07:34:11;101636.59;;;23.13;99.20
59103;BME280;43999;51.660;5.616;2022-08-24T07:36:39;101632.38;;;23.20;96.28
59103;BME280;43999;51.660;5.616;2022-08-24T07:39:11;101639.91;;;23.34;94.66
59103;BME280;43999;51.660;5.616;2022-08-24T07:41:42;101641.53;;;23.45;93.11
59103;BME280;43999;51.660;5.616;2022-08-24T07:44:30;101641.38;;;23.56;92.79
59103;BME280;43999;51.660;5.616;2022-08-24T07:46:58;101639.75;;;23.63;92.91
59103;BME280;43999;51.660;5.616;2022-08-24T07:49:45;101633.81;;;23.70;91.46
59103;BME280;43999;51.660;5.616;2022-08-24T07:52:15;101636.56;;;23.78;90.98
59103;BME280;43999;51.660;5.616;2022-08-24T07:54:43;101634.19;;;23.85;89.82
59103;BME280;43999;51.660;5.616;2022-08-24T07:57:11;101631.44;;;23.94;88.51
59103;BME280;43999;51.660;5.616;2022-08-24T07:59:38;101625.84;;;24.06;86.41
59103;BME280;43999;51.660;5.616;2022-08-24T08:02:06;101632.16;;;24.14;85.55
59103;BME280;43999;51.660;5.616;2022-08-24T08:04:37;101627.88;;;24.22;86.67
59103;BME280;43999;51.660;5.616;2022-08-24T08:07:05;101638.94;;;24.27;84.73
59103;BME280;43999;51.660;5.616;2022-08-24T08:09:38;101636.34;;;24.35;82.90
59103;BME280;43999;51.660;5.616;2022-08-24T08:12:08;101634.06;;;24.40;83.02
59103;BME280;43999;51.660;5.616;2022-08-24T08:14:42;101641.63;;;24.45;83.73
59103;BME280;43999;51.660;5.616;2022-08-24T08:17:10;101639.47;;;24.48;84.04
59103;BME280;43999;51.660;5.616;2022-08-24T08:19:39;101645.34;;;24.52;82.04
59103;BME280;43999;51.660;5.616;2022-08-24T08:22:09;101643.22;;;24.56;83.06
59103;BME280;43999;51.660;5.616;2022-08-24T08:25:17;101652.50;;;24.61;81.44
59103;BME280;43999;51.660;5.616;2022-08-24T08:27:45;101647.38;;;24.68;80.76
59103;BME280;43999;51.660;5.616;2022-08-24T08:30:15;101649.94;;;24.78;79.30
59103;BME280;43999;51.660;5.616;2022-08-24T08:32:43;101650.22;;;24.93;79.64
59103;BME280;43999;51.660;5.616;2022-08-24T08:35:10;101652.34;;;25.15;78.44
59103;BME280;43999;51.660;5.616;2022-08-24T08:37:39;101655.41;;;25.47;76.03
59103;BME280;43999;51.660;5.616;2022-08-24T08:40:12;101649.47;;;25.77;74.08
59103;BME280;43999;51.660;5.616;2022-08-24T08:43:12;101652.63;;;26.16;73.68
59103;BME280;43999;51.660;5.616;2022-08-24T08:55:03;101660.00;;;28.46;64.62
59103;BME280;43999;51.660;5.616;2022-08-24T08:58:39;101649.69;;;29.03;59.40
59103;BME280;43999;51.660;5.616;2022-08-24T09:01:24;101646.06;;;29.55;57.92
59103;BME280;43999;51.660;5.616;2022-08-24T09:18:19;101651.38;;;31.76;51.93
59103;BME280;43999;51.660;5.616;2022-08-24T09:24:38;101655.66;;;32.39;49.06
59103;BME280;43999;51.660;5.616;2022-08-24T09:28:11;101659.22;;;32.73;46.52
59103;BME280;43999;51.660;5.616;2022-08-24T09:31:27;101641.66;;;32.96;44.14
59103;BME280;43999;51.660;5.616;2022-08-24T09:38:22;101649.97;;;33.14;42.85
59103;BME280;43999;51.660;5.616;2022-08-24T09:54:35;101652.19;;;33.89;39.73
59103;BME280;43999;51.660;5.616;2022-08-24T10:01:32;101648.31;;;33.72;39.19
59103;BME280;43999;51.660;5.616;2022-08-24T10:04:43;101649.91;;;33.86;39.41
59103;BME280;43999;51.660;5.616;2022-08-24T10:18:44;101640.38;;;34.85;36.47
59103;BME280;43999;51.660;5.616;2022-08-24T10:22:05;101637.47;;;34.98;36.31
59103;BME280;43999;51.660;5.616;2022-08-24T10:31:09;101630.28;;;35.22;34.88
59103;BME280;43999;51.660;5.616;2022-08-24T10:40:32;101628.50;;;35.95;33.76
59103;BME280;43999;51.660;5.616;2022-08-24T10:46:50;101626.22;;;36.46;31.74
59103;BME280;43999;51.660;5.616;2022-08-24T10:55:30;101625.28;;;36.29;32.05
59103;BME280;43999;51.660;5.616;2022-08-24T11:01:21;101609.84;;;36.82;30.94
59103;BME280;43999;51.660;5.616;2022-08-24T11:04:12;101620.22;;;37.08;30.03
59103;BME280;43999;51.660;5.616;2022-08-24T11:07:16;101618.28;;;37.21;29.47
59103;BME280;43999;51.660;5.616;2022-08-24T11:09:56;101607.78;;;37.01;29.85
59103;BME280;43999;51.660;5.616;2022-08-24T11:12:39;101611.72;;;36.93;30.28
59103;BME280;43999;51.660;5.616;2022-08-24T11:18:10;101610.78;;;36.75;29.88
59103;BME280;43999;51.660;5.616;2022-08-24T11:20:44;101613.75;;;36.38;30.91
59103;BME280;43999;51.660;5.616;2022-08-24T11:23:22;101606.44;;;35.97;31.41
59103;BME280;43999;51.660;5.616;2022-08-24T11:26:19;101609.72;;;35.57;31.93
59103;BME280;43999;51.660;5.616;2022-08-24T11:28:59;101619.03;;;35.18;32.50
59103;BME280;43999;51.660;5.616;2022-08-24T11:31:38;101609.88;;;34.76;33.44
59103;BME280;43999;51.660;5.616;2022-08-24T11:34:16;101606.63;;;34.42;34.03
59103;BME280;43999;51.660;5.616;2022-08-24T11:36:58;101608.50;;;34.16;34.15
59103;BME280;43999;51.660;5.616;2022-08-24T11:39:37;101599.03;;;33.93;35.20
59103;BME280;43999;51.660;5.616;2022-08-24T11:45:14;101602.25;;;33.84;36.42
59103;BME280;43999;51.660;5.616;2022-08-24T11:57:26;101593.16;;;33.97;35.42
59103;BME280;43999;51.660;5.616;2022-08-24T12:00:17;101591.75;;;33.87;36.38
59103;BME280;43999;51.660;5.616;2022-08-24T12:16:08;101579.09;;;33.29;37.50
59103;BME280;43999;51.660;5.616;2022-08-24T12:22:04;101584.16;;;33.12;37.10
59103;BME280;43999;51.660;5.616;2022-08-24T12:24:51;101581.94;;;32.96;37.56
59103;BME280;43999;51.660;5.616;2022-08-24T12:27:34;101577.16;;;32.91;37.48
59103;BME280;43999;51.660;5.616;2022-08-24T12:30:12;101581.75;;;32.84;37.50
59103;BME280;43999;51.660;5.616;2022-08-24T12:33:01;101571.97;;;32.76;37.35
59103;BME280;43999;51.660;5.616;2022-08-24T12:35:42;101578.06;;;32.65;37.68
59103;BME280;43999;51.660;5.616;2022-08-24T12:38:32;101577.00;;;32.52;37.91
59103;BME280;43999;51.660;5.616;2022-08-24T12:45:04;101573.50;;;32.19;38.52
59103;BME280;43999;51.660;5.616;2022-08-24T12:47:59;101571.38;;;32.07;38.77
59103;BME280;43999;51.660;5.616;2022-08-24T12:57:21;101564.66;;;31.56;39.26
59103;BME280;43999;51.660;5.616;2022-08-24T13:00:16;101567.47;;;31.41;39.96
59103;BME280;43999;51.660;5.616;2022-08-24T13:03:05;101567.88;;;31.32;39.54
59103;BME280;43999;51.660;5.616;2022-08-24T13:05:46;101571.38;;;31.25;40.73
59103;BME280;43999;51.660;5.616;2022-08-24T13:08:40;101564.50;;;31.23;41.11
59103;BME280;43999;51.660;5.616;2022-08-24T13:11:34;101571.59;;;31.24;40.39
59103;BME280;43999;51.660;5.616;2022-08-24T13:14:19;101565.56;;;31.28;40.09
59103;BME280;43999;51.660;5.616;2022-08-24T13:17:09;101564.16;;;31.39;39.96
59103;BME280;43999;51.660;5.616;2022-08-24T13:19:45;101555.03;;;31.54;39.84
59103;BME280;43999;51.660;5.616;2022-08-24T13:33:49;101550.53;;;32.08;39.39
59103;BME280;43999;51.660;5.616;2022-08-24T13:42:22;101547.00;;;33.13;36.97
59103;BME280;43999;51.660;5.616;2022-08-24T13:51:02;101543.38;;;34.21;34.49
59103;BME280;43999;51.660;5.616;2022-08-24T13:54:18;101543.13;;;34.04;34.98
59103;BME280;43999;51.660;5.616;2022-08-24T14:05:55;101531.91;;;33.62;34.50
59103;BME280;43999;51.660;5.616;2022-08-24T14:18:14;101526.69;;;34.61;32.82
59103;BME280;43999;51.660;5.616;2022-08-24T14:21:17;101523.56;;;34.39;33.41
59103;BME280;43999;51.660;5.616;2022-08-24T14:24:10;101528.25;;;34.51;32.81
59103;BME280;43999;51.660;5.616;2022-08-24T14:27:05;101513.53;;;34.58;32.53
59103;BME280;43999;51.660;5.616;2022-08-24T14:29:41;101520.09;;;34.32;33.32
59103;BME280;43999;51.660;5.616;2022-08-24T14:32:25;101518.97;;;34.15;33.13
59103;BME280;43999;51.660;5.616;2022-08-24T14:35:17;101516.41;;;34.20;32.81
59103;BME280;43999;51.660;5.616;2022-08-24T14:51:18;101503.59;;;37.55;28.31
59103;BME280;43999;51.660;5.616;2022-08-24T14:56:45;101495.06;;;38.19;27.12
59103;BME280;43999;51.660;5.616;2022-08-24T15:08:11;101492.84;;;39.04;25.71
59103;BME280;43999;51.660;5.616;2022-08-24T15:11:27;101493.53;;;38.67;25.09
59103;BME280;43999;51.660;5.616;2022-08-24T15:14:19;101493.56;;;38.50;25.56
59103;BME280;43999;51.660;5.616;2022-08-24T15:17:11;101483.38;;;38.07;25.71
59103;BME280;43999;51.660;5.616;2022-08-24T15:20:06;101481.22;;;37.24;26.46
59103;BME280;43999;51.660;5.616;2022-08-24T15:22:56;101487.72;;;37.23;26.77
59103;BME280;43999;51.660;5.616;2022-08-24T15:25:43;101480.41;;;37.40;26.72
59103;BME280;43999;51.660;5.616;2022-08-24T15:28:34;101486.72;;;37.75;26.29
59103;BME280;43999;51.660;5.616;2022-08-24T15:31:09;101473.34;;;37.95;26.04
59103;BME280;43999;51.660;5.616;2022-08-24T15:34:02;101475.56;;;38.15;25.54
59103;BME280;43999;51.660;5.616;2022-08-24T15:36:31;101472.63;;;37.83;25.84
59103;BME280;43999;51.660;5.616;2022-08-24T15:39:03;101471.72;;;37.94;25.56
59103;BME280;43999;51.660;5.616;2022-08-24T15:41:36;101471.09;;;38.09;25.27
59103;BME280;43999;51.660;5.616;2022-08-24T15:44:21;101463.31;;;38.40;25.10
59103;BME280;43999;51.660;5.616;2022-08-24T15:46:56;101467.06;;;38.56;24.79
59103;BME280;43999;51.660;5.616;2022-08-24T15:50:06;101464.78;;;38.70;25.02
59103;BME280;43999;51.660;5.616;2022-08-24T15:55:43;101467.75;;;38.90;24.70
59103;BME280;43999;51.660;5.616;2022-08-24T15:58:34;101464.50;;;38.94;24.18
59103;BME280;43999;51.660;5.616;2022-08-24T16:04:00;101463.88;;;38.42;23.78
59103;BME280;43999;51.660;5.616;2022-08-24T16:11:43;101456.72;;;37.00;25.64
59103;BME280;43999;51.660;5.616;2022-08-24T16:14:37;101463.75;;;36.43;26.72
59103;BME280;43999;51.660;5.616;2022-08-24T16:20:31;101467.50;;;35.36;27.63
59103;BME280;43999;51.660;5.616;2022-08-24T16:23:08;101468.84;;;34.85;28.79
59103;BME280;43999;51.660;5.616;2022-08-24T16:25:42;101461.59;;;34.41;29.76
59103;BME280;43999;51.660;5.616;2022-08-24T16:30:56;101467.84;;;33.80;30.12
59103;BME280;43999;51.660;5.616;2022-08-24T16:35:57;101455.84;;;33.30;30.74
59103;BME280;43999;51.660;5.616;2022-08-24T16:38:32;101452.41;;;33.10;32.35
59103;BME280;43999;51.660;5.616;2022-08-24T16:41:06;101453.50;;;32.95;31.76
59103;BME280;43999;51.660;5.616;2022-08-24T16:43:39;101457.13;;;32.82;32.74
59103;BME280;43999;51.660;5.616;2022-08-24T16:46:09;101449.69;;;32.71;32.56
59103;BME280;43999;51.660;5.616;2022-08-24T16:48:38;101446.97;;;32.58;32.44
59103;BME280;43999;51.660;5.616;2022-08-24T16:51:06;101451.19;;;32.47;32.86
59103;BME280;43999;51.660;5.616;2022-08-24T16:53:34;101453.13;;;32.40;33.18
59103;BME280;43999;51.660;5.616;2022-08-24T16:56:02;101446.88;;;32.32;33.39
59103;BME280;43999;51.660;5.616;2022-08-24T16:58:33;101442.09;;;32.28;33.32
59103;BME280;43999;51.660;5.616;2022-08-24T17:01:01;101445.66;;;32.22;33.62
59103;BME280;43999;51.660;5.616;2022-08-24T17:03:29;101454.63;;;32.15;33.48
59103;BME280;43999;51.660;5.616;2022-08-24T17:05:56;101448.81;;;32.12;33.73
59103;BME280;43999;51.660;5.616;2022-08-24T17:08:25;101453.16;;;32.06;33.24
59103;BME280;43999;51.660;5.616;2022-08-24T17:10:54;101448.34;;;32.02;33.69